sensor_id;sensor_type;location;lat;lon;timestamp;temperature;humidity
38622;DHT22;24380;51.132;5.360;2023-04-22T00:02:04;8.50;99.90
38622;DHT22;24380;51.132;5.360;2023-04-22T00:04:32;8.60;99.90
38622;DHT22;24380;51.132;5.360;2023-04-22T00:07:00;8.60;99.90
38622;DHT22;24380;51.132;5.360;2023-04-22T00:09:27;8.60;99.90
38622;DHT22;24380;51.132;5.360;2023-04-22T00:11:55;8.60;99.90
38622;DHT22;24380;51.132;5.360;2023-04-22T00:14:23;8.70;99.90
38622;DHT22;24380;51.132;5.360;2023-04-22T00:16:51;8.70;99.90
38622;DHT22;24380;51.132;5.360;2023-04-22T00:19:18;8.70;99.90
38622;DHT22;24380;51.132;5.360;2023-04-22T00:21:47;8.80;99.90
38622;DHT22;24380;51.132;5.360;2023-04-22T00:24:14;8.80;99.90
38622;DHT22;24380;51.132;5.360;2023-04-22T00:26:42;8.90;99.90
38622;DHT22;24380;51.132;5.360;2023-04-22T00:29:09;9.00;99.90
38622;DHT22;24380;51.132;5.360;2023-04-22T00:31:37;9.10;99.90
38622;DHT22;24380;51.132;5.360;2023-04-22T00:34:04;9.00;99.90
38622;DHT22;24380;51.132;5.360;2023-04-22T00:36:32;9.00;99.90
38622;DHT22;24380;51.132;5.360;2023-04-22T00:39:00;9.20;99.90
38622;DHT22;24380;51.132;5.360;2023-04-22T00:41:28;9.20;99.90
38622;DHT22;24380;51.132;5.360;2023-04-22T00:43:57;9.20;99.90
38622;DHT22;24380;51.132;5.360;2023-04-22T00:46:26;9.20;99.90
38622;DHT22;24380;51.132;5.360;2023-04-22T00:48:53;9.10;99.90
38622;DHT22;24380;51.132;5.360;2023-04-22T00:51:21;9.10;99.90
38622;DHT22;24380;51.132;5.360;2023-04-22T00:53:48;9.10;99.90
38622;DHT22;24380;51.132;5.360;2023-04-22T00:56:16;9.10;99.90
38622;DHT22;24380;51.132;5.360;2023-04-22T00:58:44;9.10;99.90
38622;DHT22;24380;51.132;5.360;2023-04-22T01:01:12;9.20;99.90
38622;DHT22;24380;51.132;5.360;2023-04-22T01:03:40;9.10;99.90
38622;DHT22;24380;51.132;5.360;2023-04-22T01:06:07;9.00;99.90
38622;DHT22;24380;51.132;5.360;2023-04-22T01:08:35;8.90;99.90
38622;DHT22;24380;51.132;5.360;2023-04-22T01:11:02;8.90;99.90
38622;DHT22;24380;51.132;5.360;2023-04-22T01:13:30;8.80;99.90
38622;DHT22;24380;51.132;5.360;2023-04-22T01:16:00;8.70;99.90
38622;DHT22;24380;51.132;5.360;2023-04-22T01:18:28;8.70;99.90
38622;DHT22;24380;51.132;5.360;2023-04-22T01:20:55;8.70;99.90
38622;DHT22;24380;51.132;5.360;2023-04-22T01:23:23;8.70;99.90
38622;DHT22;24380;51.132;5.360;2023-04-22T01:25:50;8.70;99.90
38622;DHT22;24380;51.132;5.360;2023-04-22T01:28:18;8.80;99.90
38622;DHT22;24380;51.132;5.360;2023-04-22T01:30:47;8.70;99.90
38622;DHT22;24380;51.132;5.360;2023-04-22T01:33:15;8.70;99.90
38622;DHT22;24380;51.132;5.360;2023-04-22T01:35:43;8.60;99.90
38622;DHT22;24380;51.132;5.360;2023-04-22T01:38:11;8.60;99.90
38622;DHT22;24380;51.132;5.360;2023-04-22T01:40:39;8.70;99.90
38622;DHT22;24380;51.132;5.360;2023-04-22T01:43:07;8.70;99.90
38622;DHT22;24380;51.132;5.360;2023-04-22T01:45:34;8.80;99.90
38622;DHT22;24380;51.132;5.360;2023-04-22T01:48:04;8.80;99.90
38622;DHT22;24380;51.132;5.360;2023-04-22T01:50:33;8.80;99.90
38622;DHT22;24380;51.132;5.360;2023-04-22T01:53:01;8.80;99.90
38622;DHT22;24380;51.132;5.360;2023-04-22T01:55:29;8.80;99.90
38622;DHT22;24380;51.132;5.360;2023-04-22T01:57:58;8.90;99.90
38622;DHT22;24380;51.132;5.360;2023-04-22T02:00:26;8.90;99.90
38622;DHT22;24380;51.132;5.360;2023-04-22T02:02:53;9.00;99.90
38622;DHT22;24380;51.132;5.360;2023-04-22T02:05:21;9.00;99.90
38622;DHT22;24380;51.132;5.360;2023-04-22T02:07:51;9.00;99.90
38622;DHT22;24380;51.132;5.360;2023-04-22T02:10:19;8.90;99.90
38622;DHT22;24380;51.132;5.360;2023-04-22T02:12:46;8.80;99.90
38622;DHT22;24380;51.132;5.360;2023-04-22T02:15:14;8.70;99.90
38622;DHT22;24380;51.132;5.360;2023-04-22T02:17:42;8.60;99.90
38622;DHT22;24380;51.132;5.360;2023-04-22T02:20:10;8.70;99.90
38622;DHT22;24380;51.132;5.360;2023-04-22T02:22:38;8.80;99.90
38622;DHT22;24380;51.132;5.360;2023-04-22T02:25:07;8.80;99.90
38622;DHT22;24380;51.132;5.360;2023-04-22T02:27:36;8.80;99.90
38622;DHT22;24380;51.132;5.360;2023-04-22T02:30:05;8.70;99.90
38622;DHT22;24380;51.132;5.360;2023-04-22T02:32:33;8.70;99.90
38622;DHT22;24380;51.132;5.360;2023-04-22T02:35:02;8.70;99.90
38622;DHT22;24380;51.132;5.360;2023-04-22T02:37:30;8.70;99.90
38622;DHT22;24380;51.132;5.360;2023-04-22T02:39:58;8.60;99.90
38622;DHT22;24380;51.132;5.360;2023-04-22T02:42:25;8.50;99.90
38622;DHT22;24380;51.132;5.360;2023-04-22T02:44:53;8.50;99.90
38622;DHT22;24380;51.132;5.360;2023-04-22T02:47:22;8.50;99.90
38622;DHT22;24380;51.132;5.360;2023-04-22T02:49:49;8.60;99.90
38622;DHT22;24380;51.132;5.360;2023-04-22T02:52:17;8.50;99.90
38622;DHT22;24380;51.132;5.360;2023-04-22T02:54:44;8.50;99.90
38622;DHT22;24380;51.132;5.360;2023-04-22T02:57:12;8.50;99.90
38622;DHT22;24380;51.132;5.360;2023-04-22T02:59:39;8.50;99.90
38622;DHT22;24380;51.132;5.360;2023-04-22T03:02:07;8.60;99.90
38622;DHT22;24380;51.132;5.360;2023-04-22T03:04:36;8.40;99.90
38622;DHT22;24380;51.132;5.360;2023-04-22T03:07:03;8.30;99.90
38622;DHT22;24380;51.132;5.360;2023-04-22T03:09:31;8.30;99.90
38622;DHT22;24380;51.132;5.360;2023-04-22T03:11:58;8.30;99.90
38622;DHT22;24380;51.132;5.360;2023-04-22T03:14:26;8.20;99.90
38622;DHT22;24380;51.132;5.360;2023-04-22T03:16:54;8.20;99.90
38622;DHT22;24380;51.132;5.360;2023-04-22T03:19:22;8.20;99.90
38622;DHT22;24380;51.132;5.360;2023-04-22T03:21:49;8.20;99.90
38622;DHT22;24380;51.132;5.360;2023-04-22T03:24:17;8.20;99.90
38622;DHT22;24380;51.132;5.360;2023-04-22T03:26:44;8.20;99.90
38622;DHT22;24380;51.132;5.360;2023-04-22T03:29:12;8.20;99.90
38622;DHT22;24380;51.132;5.360;2023-04-22T03:31:39;8.10;99.90
38622;DHT22;24380;51.132;5.360;2023-04-22T03:34:08;8.10;99.90
38622;DHT22;24380;51.132;5.360;2023-04-22T03:36:35;8.10;99.90
38622;DHT22;24380;51.132;5.360;2023-04-22T03:39:03;8.20;99.90
38622;DHT22;24380;51.132;5.360;2023-04-22T03:41:31;8.20;99.90
38622;DHT22;24380;51.132;5.360;2023-04-22T03:43:58;8.10;99.90
38622;DHT22;24380;51.132;5.360;2023-04-22T03:46:26;8.10;99.90
38622;DHT22;24380;51.132;5.360;2023-04-22T03:48:53;8.10;99.90
38622;DHT22;24380;51.132;5.360;2023-04-22T03:51:21;8.20;99.90
38622;DHT22;24380;51.132;5.360;2023-04-22T03:53:48;8.30;99.90
38622;DHT22;24380;51.132;5.360;2023-04-22T03:56:15;8.20;99.90
38622;DHT22;24380;51.132;5.360;2023-04-22T03:58:43;8.30;99.90
38622;DHT22;24380;51.132;5.360;2023-04-22T04:01:11;8.30;99.90
38622;DHT22;24380;51.132;5.360;2023-04-22T04:03:38;8.30;99.90
38622;DHT22;24380;51.132;5.360;2023-04-22T04:06:06;8.40;99.90
38622;DHT22;24380;51.132;5.360;2023-04-22T04:08:33;8.40;99.90
38622;DHT22;24380;51.132;5.360;2023-04-22T04:11:01;8.30;99.90
38622;DHT22;24380;51.132;5.360;2023-04-22T04:13:28;8.30;99.90
38622;DHT22;24380;51.132;5.360;2023-04-22T04:15:58;8.20;99.90
38622;DHT22;24380;51.132;5.360;2023-04-22T04:18:26;8.20;99.90
38622;DHT22;24380;51.132;5.360;2023-04-22T04:20:55;8.20;99.90
38622;DHT22;24380;51.132;5.360;2023-04-22T04:23:22;8.20;99.90
38622;DHT22;24380;51.132;5.360;2023-04-22T04:25:50;8.10;99.90
38622;DHT22;24380;51.132;5.360;2023-04-22T04:28:18;8.10;99.90
38622;DHT22;24380;51.132;5.360;2023-04-22T04:30:46;8.20;99.90
38622;DHT22;24380;51.132;5.360;2023-04-22T04:33:13;8.30;99.90
38622;DHT22;24380;51.132;5.360;2023-04-22T04:35:43;8.40;99.90
38622;DHT22;24380;51.132;5.360;2023-04-22T04:38:10;8.40;99.90
38622;DHT22;24380;51.132;5.360;2023-04-22T04:40:38;8.50;99.90
38622;DHT22;24380;51.132;5.360;2023-04-22T04:43:06;8.40;99.90
38622;DHT22;24380;51.132;5.360;2023-04-22T04:45:34;8.40;99.90
38622;DHT22;24380;51.132;5.360;2023-04-22T04:48:04;8.50;99.90
38622;DHT22;24380;51.132;5.360;2023-04-22T04:50:34;8.40;99.90
38622;DHT22;24380;51.132;5.360;2023-04-22T04:53:02;8.40;99.90
38622;DHT22;24380;51.132;5.360;2023-04-22T04:55:29;8.50;99.90
38622;DHT22;24380;51.132;5.360;2023-04-22T04:57:57;8.50;99.90
38622;DHT22;24380;51.132;5.360;2023-04-22T05:00:24;8.50;99.90
38622;DHT22;24380;51.132;5.360;2023-04-22T05:02:52;8.50;99.90
38622;DHT22;24380;51.132;5.360;2023-04-22T05:05:19;8.60;99.90
38622;DHT22;24380;51.132;5.360;2023-04-22T05:07:47;8.60;99.90
38622;DHT22;24380;51.132;5.360;2023-04-22T05:10:15;8.50;99.90
38622;DHT22;24380;51.132;5.360;2023-04-22T05:12:43;8.60;99.90
38622;DHT22;24380;51.132;5.360;2023-04-22T05:15:12;8.70;99.90
38622;DHT22;24380;51.132;5.360;2023-04-22T05:17:40;8.70;99.90
38622;DHT22;24380;51.132;5.360;2023-04-22T05:20:08;8.70;99.90
38622;DHT22;24380;51.132;5.360;2023-04-22T05:22:35;8.60;99.90
38622;DHT22;24380;51.132;5.360;2023-04-22T05:25:03;8.60;99.90
38622;DHT22;24380;51.132;5.360;2023-04-22T05:27:31;8.50;99.90
38622;DHT22;24380;51.132;5.360;2023-04-22T05:29:59;8.60;99.90
38622;DHT22;24380;51.132;5.360;2023-04-22T05:32:26;8.70;99.90
38622;DHT22;24380;51.132;5.360;2023-04-22T05:34:54;8.80;99.90
38622;DHT22;24380;51.132;5.360;2023-04-22T05:37:21;8.90;99.90
38622;DHT22;24380;51.132;5.360;2023-04-22T05:39:49;8.90;99.90
38622;DHT22;24380;51.132;5.360;2023-04-22T05:42:16;8.90;99.90
38622;DHT22;24380;51.132;5.360;2023-04-22T05:44:44;8.80;99.90
38622;DHT22;24380;51.132;5.360;2023-04-22T05:47:12;9.00;99.90
38622;DHT22;24380;51.132;5.360;2023-04-22T05:49:39;9.10;99.90
38622;DHT22;24380;51.132;5.360;2023-04-22T05:52:07;9.30;99.90
38622;DHT22;24380;51.132;5.360;2023-04-22T05:54:34;9.50;99.90
38622;DHT22;24380;51.132;5.360;2023-04-22T05:57:02;9.70;99.90
38622;DHT22;24380;51.132;5.360;2023-04-22T05:59:29;10.00;99.90
38622;DHT22;24380;51.132;5.360;2023-04-22T06:01:57;10.10;99.90
38622;DHT22;24380;51.132;5.360;2023-04-22T06:04:24;10.20;99.90
38622;DHT22;24380;51.132;5.360;2023-04-22T06:06:52;10.30;99.90
38622;DHT22;24380;51.132;5.360;2023-04-22T06:09:20;10.50;99.90
38622;DHT22;24380;51.132;5.360;2023-04-22T06:11:48;10.70;99.90
38622;DHT22;24380;51.132;5.360;2023-04-22T06:14:15;11.00;99.90
38622;DHT22;24380;51.132;5.360;2023-04-22T06:16:43;11.40;99.90
38622;DHT22;24380;51.132;5.360;2023-04-22T06:19:10;11.50;99.90
38622;DHT22;24380;51.132;5.360;2023-04-22T06:21:38;11.90;99.90
38622;DHT22;24380;51.132;5.360;2023-04-22T06:24:07;12.10;99.90
38622;DHT22;24380;51.132;5.360;2023-04-22T06:26:37;12.00;99.90
38622;DHT22;24380;51.132;5.360;2023-04-22T06:29:04;12.10;99.90
38622;DHT22;24380;51.132;5.360;2023-04-22T06:31:32;12.10;99.90
38622;DHT22;24380;51.132;5.360;2023-04-22T06:33:59;12.10;99.90
38622;DHT22;24380;51.132;5.360;2023-04-22T06:36:27;12.40;99.90
38622;DHT22;24380;51.132;5.360;2023-04-22T06:38:55;12.70;99.90
38622;DHT22;24380;51.132;5.360;2023-04-22T06:41:22;13.00;99.90
38622;DHT22;24380;51.132;5.360;2023-04-22T06:43:50;13.40;99.90
38622;DHT22;24380;51.132;5.360;2023-04-22T06:46:18;13.60;99.90
38622;DHT22;24380;51.132;5.360;2023-04-22T06:48:45;13.80;99.90
38622;DHT22;24380;51.132;5.360;2023-04-22T06:51:13;14.00;99.90
38622;DHT22;24380;51.132;5.360;2023-04-22T06:53:40;14.20;99.90
38622;DHT22;24380;51.132;5.360;2023-04-22T06:56:08;14.60;99.90
38622;DHT22;24380;51.132;5.360;2023-04-22T06:58:35;15.00;99.90
38622;DHT22;24380;51.132;5.360;2023-04-22T07:01:03;14.80;99.90
38622;DHT22;24380;51.132;5.360;2023-04-22T07:03:30;14.80;99.90
38622;DHT22;24380;51.132;5.360;2023-04-22T07:05:58;14.90;99.90
38622;DHT22;24380;51.132;5.360;2023-04-22T07:08:26;15.20;99.90
38622;DHT22;24380;51.132;5.360;2023-04-22T07:10:53;15.50;99.90
38622;DHT22;24380;51.132;5.360;2023-04-22T07:13:22;15.90;99.90
38622;DHT22;24380;51.132;5.360;2023-04-22T07:15:52;16.20;99.90
38622;DHT22;24380;51.132;5.360;2023-04-22T07:18:19;16.60;99.90
38622;DHT22;24380;51.132;5.360;2023-04-22T07:20:47;17.10;99.90
38622;DHT22;24380;51.132;5.360;2023-04-22T07:23:14;17.20;99.90
38622;DHT22;24380;51.132;5.360;2023-04-22T07:25:42;17.00;99.90
38622;DHT22;24380;51.132;5.360;2023-04-22T07:28:10;17.20;99.90
38622;DHT22;24380;51.132;5.360;2023-04-22T07:30:37;17.30;99.90
38622;DHT22;24380;51.132;5.360;2023-04-22T07:33:05;17.50;99.90
38622;DHT22;24380;51.132;5.360;2023-04-22T07:35:32;17.70;99.90
38622;DHT22;24380;51.132;5.360;2023-04-22T07:38:00;17.90;99.90
38622;DHT22;24380;51.132;5.360;2023-04-22T07:40:27;18.00;99.90
38622;DHT22;24380;51.132;5.360;2023-04-22T07:42:55;18.00;99.90
38622;DHT22;24380;51.132;5.360;2023-04-22T07:45:22;17.90;99.90
38622;DHT22;24380;51.132;5.360;2023-04-22T07:47:50;17.80;99.90
38622;DHT22;24380;51.132;5.360;2023-04-22T07:50:18;17.70;99.90
38622;DHT22;24380;51.132;5.360;2023-04-22T07:52:45;17.80;99.90
38622;DHT22;24380;51.132;5.360;2023-04-22T07:55:13;18.20;99.90
38622;DHT22;24380;51.132;5.360;2023-04-22T07:57:40;18.40;99.90
38622;DHT22;24380;51.132;5.360;2023-04-22T08:00:09;18.50;99.90
38622;DHT22;24380;51.132;5.360;2023-04-22T08:02:36;18.60;99.90
38622;DHT22;24380;51.132;5.360;2023-04-22T08:05:04;18.80;99.90
38622;DHT22;24380;51.132;5.360;2023-04-22T08:07:32;17.80;99.90
38622;DHT22;24380;51.132;5.360;2023-04-22T08:10:00;17.80;99.90
38622;DHT22;24380;51.132;5.360;2023-04-22T08:12:28;18.10;99.90
38622;DHT22;24380;51.132;5.360;2023-04-22T08:14:55;18.20;99.90
38622;DHT22;24380;51.132;5.360;2023-04-22T08:17:24;18.80;99.90
38622;DHT22;24380;51.132;5.360;2023-04-22T08:19:51;19.30;99.90
38622;DHT22;24380;51.132;5.360;2023-04-22T08:22:19;19.80;99.90
38622;DHT22;24380;51.132;5.360;2023-04-22T08:24:46;20.10;99.90
38622;DHT22;24380;51.132;5.360;2023-04-22T08:27:14;20.20;99.90
38622;DHT22;24380;51.132;5.360;2023-04-22T08:29:41;20.10;99.90
38622;DHT22;24380;51.132;5.360;2023-04-22T08:32:09;20.30;99.90
38622;DHT22;24380;51.132;5.360;2023-04-22T08:34:36;20.10;99.90
38622;DHT22;24380;51.132;5.360;2023-04-22T08:37:04;19.60;99.90
38622;DHT22;24380;51.132;5.360;2023-04-22T08:39:31;19.30;99.90
38622;DHT22;24380;51.132;5.360;2023-04-22T08:41:59;19.20;99.90
38622;DHT22;24380;51.132;5.360;2023-04-22T08:44:28;19.00;99.90
38622;DHT22;24380;51.132;5.360;2023-04-22T08:46:56;18.80;99.90
38622;DHT22;24380;51.132;5.360;2023-04-22T08:49:25;18.40;99.90
38622;DHT22;24380;51.132;5.360;2023-04-22T08:51:53;18.30;99.90
38622;DHT22;24380;51.132;5.360;2023-04-22T08:54:23;18.30;99.90
38622;DHT22;24380;51.132;5.360;2023-04-22T08:56:51;18.40;99.90
38622;DHT22;24380;51.132;5.360;2023-04-22T08:59:21;18.40;99.90
38622;DHT22;24380;51.132;5.360;2023-04-22T09:01:51;18.60;99.90
38622;DHT22;24380;51.132;5.360;2023-04-22T09:04:21;18.60;99.90
38622;DHT22;24380;51.132;5.360;2023-04-22T09:06:48;18.60;99.90
38622;DHT22;24380;51.132;5.360;2023-04-22T09:09:16;18.80;99.90
38622;DHT22;24380;51.132;5.360;2023-04-22T09:11:45;19.10;99.90
38622;DHT22;24380;51.132;5.360;2023-04-22T09:14:12;19.00;99.90
38622;DHT22;24380;51.132;5.360;2023-04-22T09:16:45;18.80;99.90
38622;DHT22;24380;51.132;5.360;2023-04-22T09:19:14;18.50;99.90
38622;DHT22;24380;51.132;5.360;2023-04-22T09:21:42;18.40;99.90
38622;DHT22;24380;51.132;5.360;2023-04-22T09:24:10;18.70;99.90
38622;DHT22;24380;51.132;5.360;2023-04-22T09:26:40;19.00;99.90
38622;DHT22;24380;51.132;5.360;2023-04-22T09:29:13;19.00;99.90
38622;DHT22;24380;51.132;5.360;2023-04-22T09:31:46;19.00;99.90
38622;DHT22;24380;51.132;5.360;2023-04-22T09:34:11;19.50;99.90
38622;DHT22;24380;51.132;5.360;2023-04-22T09:36:38;19.80;99.90
38622;DHT22;24380;51.132;5.360;2023-04-22T09:39:07;20.00;99.90
38622;DHT22;24380;51.132;5.360;2023-04-22T09:41:39;20.40;99.90
38622;DHT22;24380;51.132;5.360;2023-04-22T09:44:15;20.60;99.90
38622;DHT22;24380;51.132;5.360;2023-04-22T09:46:44;21.00;99.90
38622;DHT22;24380;51.132;5.360;2023-04-22T09:49:15;21.40;99.90
38622;DHT22;24380;51.132;5.360;2023-04-22T09:51:42;21.10;99.90
38622;DHT22;24380;51.132;5.360;2023-04-22T09:54:10;20.90;99.90
38622;DHT22;24380;51.132;5.360;2023-04-22T09:56:51;20.70;99.90
38622;DHT22;24380;51.132;5.360;2023-04-22T09:59:28;20.50;99.90
38622;DHT22;24380;51.132;5.360;2023-04-22T10:01:57;20.50;99.90
38622;DHT22;24380;51.132;5.360;2023-04-22T10:04:24;20.60;99.90
38622;DHT22;24380;51.132;5.360;2023-04-22T10:06:53;20.80;99.90
38622;DHT22;24380;51.132;5.360;2023-04-22T10:09:23;21.00;99.90
38622;DHT22;24380;51.132;5.360;2023-04-22T10:11:52;21.00;99.90
38622;DHT22;24380;51.132;5.360;2023-04-22T10:14:21;20.60;99.90
38622;DHT22;24380;51.132;5.360;2023-04-22T10:16:55;20.50;99.90
38622;DHT22;24380;51.132;5.360;2023-04-22T10:19:21;20.10;99.90
38622;DHT22;24380;51.132;5.360;2023-04-22T10:21:52;19.60;99.90
38622;DHT22;24380;51.132;5.360;2023-04-22T10:24:20;19.10;99.90
38622;DHT22;24380;51.132;5.360;2023-04-22T10:26:51;18.70;99.90
38622;DHT22;24380;51.132;5.360;2023-04-22T10:29:19;18.50;99.90
38622;DHT22;24380;51.132;5.360;2023-04-22T10:34:38;18.30;99.90
38622;DHT22;24380;51.132;5.360;2023-04-22T10:37:07;18.10;99.90
38622;DHT22;24380;51.132;5.360;2023-04-22T10:39:38;18.00;99.90
38622;DHT22;24380;51.132;5.360;2023-04-22T10:42:13;18.00;99.90
38622;DHT22;24380;51.132;5.360;2023-04-22T10:47:34;18.50;99.90
38622;DHT22;24380;51.132;5.360;2023-04-22T10:55:18;18.40;99.90
38622;DHT22;24380;51.132;5.360;2023-04-22T10:57:48;18.20;99.90
38622;DHT22;24380;51.132;5.360;2023-04-22T11:03:07;17.90;99.90
38622;DHT22;24380;51.132;5.360;2023-04-22T11:05:36;17.90;99.90
38622;DHT22;24380;51.132;5.360;2023-04-22T11:08:11;17.80;99.90
38622;DHT22;24380;51.132;5.360;2023-04-22T11:10:45;17.60;99.90
38622;DHT22;24380;51.132;5.360;2023-04-22T11:13:13;17.70;99.90
38622;DHT22;24380;51.132;5.360;2023-04-22T11:15:43;17.60;99.90
38622;DHT22;24380;51.132;5.360;2023-04-22T11:18:14;17.60;99.90
38622;DHT22;24380;51.132;5.360;2023-04-22T11:20:41;17.60;99.90
38622;DHT22;24380;51.132;5.360;2023-04-22T11:23:09;17.60;99.90
38622;DHT22;24380;51.132;5.360;2023-04-22T11:25:37;17.60;99.90
38622;DHT22;24380;51.132;5.360;2023-04-22T11:28:04;17.80;99.90
38622;DHT22;24380;51.132;5.360;2023-04-22T11:30:32;17.90;99.90
38622;DHT22;24380;51.132;5.360;2023-04-22T11:32:59;17.90;99.90
38622;DHT22;24380;51.132;5.360;2023-04-22T11:35:30;17.90;99.90
38622;DHT22;24380;51.132;5.360;2023-04-22T11:38:02;17.60;99.90
38622;DHT22;24380;51.132;5.360;2023-04-22T11:40:37;17.60;99.90
38622;DHT22;24380;51.132;5.360;2023-04-22T11:43:03;17.50;99.90
38622;DHT22;24380;51.132;5.360;2023-04-22T11:45:32;17.60;99.90
38622;DHT22;24380;51.132;5.360;2023-04-22T11:48:01;17.50;99.90
38622;DHT22;24380;51.132;5.360;2023-04-22T11:50:31;17.40;99.90
38622;DHT22;24380;51.132;5.360;2023-04-22T11:53:00;17.40;99.90
38622;DHT22;24380;51.132;5.360;2023-04-22T11:55:38;17.30;99.90
38622;DHT22;24380;51.132;5.360;2023-04-22T11:58:10;17.50;99.90
38622;DHT22;24380;51.132;5.360;2023-04-22T12:00:40;17.40;99.90
38622;DHT22;24380;51.132;5.360;2023-04-22T12:03:16;17.60;99.90
38622;DHT22;24380;51.132;5.360;2023-04-22T12:05:46;17.70;99.90
38622;DHT22;24380;51.132;5.360;2023-04-22T12:08:21;17.60;99.90
38622;DHT22;24380;51.132;5.360;2023-04-22T12:10:55;17.50;99.90
38622;DHT22;24380;51.132;5.360;2023-04-22T12:15:57;17.50;99.90
38622;DHT22;24380;51.132;5.360;2023-04-22T12:18:31;17.50;99.90
38622;DHT22;24380;51.132;5.360;2023-04-22T12:21:07;17.60;99.90
38622;DHT22;24380;51.132;5.360;2023-04-22T12:23:53;17.30;99.90
38622;DHT22;24380;51.132;5.360;2023-04-22T12:26:22;17.00;99.90
38622;DHT22;24380;51.132;5.360;2023-04-22T12:28:50;16.60;99.90
38622;DHT22;24380;51.132;5.360;2023-04-22T12:31:17;16.70;99.90
38622;DHT22;24380;51.132;5.360;2023-04-22T12:33:45;16.60;99.90
38622;DHT22;24380;51.132;5.360;2023-04-22T12:36:13;16.50;99.90
38622;DHT22;24380;51.132;5.360;2023-04-22T12:38:40;16.40;99.90
38622;DHT22;24380;51.132;5.360;2023-04-22T12:41:08;16.40;99.90
38622;DHT22;24380;51.132;5.360;2023-04-22T12:43:36;16.20;99.90
38622;DHT22;24380;51.132;5.360;2023-04-22T12:46:06;16.30;99.90
38622;DHT22;24380;51.132;5.360;2023-04-22T12:48:34;16.20;99.90
38622;DHT22;24380;51.132;5.360;2023-04-22T12:51:05;16.30;99.90
38622;DHT22;24380;51.132;5.360;2023-04-22T12:53:33;16.30;99.90
38622;DHT22;24380;51.132;5.360;2023-04-22T12:56:00;16.40;99.90
38622;DHT22;24380;51.132;5.360;2023-04-22T12:58:28;16.50;99.90
38622;DHT22;24380;51.132;5.360;2023-04-22T13:00:56;16.50;99.90
38622;DHT22;24380;51.132;5.360;2023-04-22T13:03:23;16.40;99.90
38622;DHT22;24380;51.132;5.360;2023-04-22T13:05:51;16.30;99.90
38622;DHT22;24380;51.132;5.360;2023-04-22T13:08:19;16.20;99.90
38622;DHT22;24380;51.132;5.360;2023-04-22T13:10:47;16.20;99.90
38622;DHT22;24380;51.132;5.360;2023-04-22T13:13:15;16.30;99.90
38622;DHT22;24380;51.132;5.360;2023-04-22T13:15:43;16.20;99.90
38622;DHT22;24380;51.132;5.360;2023-04-22T13:18:11;15.90;99.90
38622;DHT22;24380;51.132;5.360;2023-04-22T13:20:38;15.90;99.90
38622;DHT22;24380;51.132;5.360;2023-04-22T13:23:07;15.90;99.90
38622;DHT22;24380;51.132;5.360;2023-04-22T13:25:35;15.90;99.90
38622;DHT22;24380;51.132;5.360;2023-04-22T13:28:02;15.80;99.90
38622;DHT22;24380;51.132;5.360;2023-04-22T13:30:30;15.80;99.90
38622;DHT22;24380;51.132;5.360;2023-04-22T13:32:57;15.70;99.90
38622;DHT22;24380;51.132;5.360;2023-04-22T13:35:25;15.60;99.90
38622;DHT22;24380;51.132;5.360;2023-04-22T13:37:52;15.50;99.90
38622;DHT22;24380;51.132;5.360;2023-04-22T13:40:20;15.40;99.90
38622;DHT22;24380;51.132;5.360;2023-04-22T13:42:47;15.20;99.90
38622;DHT22;24380;51.132;5.360;2023-04-22T13:45:15;15.10;99.90
38622;DHT22;24380;51.132;5.360;2023-04-22T13:47:43;14.90;99.90
38622;DHT22;24380;51.132;5.360;2023-04-22T13:50:10;14.90;99.90
38622;DHT22;24380;51.132;5.360;2023-04-22T13:52:38;14.90;99.90
38622;DHT22;24380;51.132;5.360;2023-04-22T13:55:06;14.90;99.90
38622;DHT22;24380;51.132;5.360;2023-04-22T13:57:34;14.90;99.90
38622;DHT22;24380;51.132;5.360;2023-04-22T14:00:01;14.80;99.90
38622;DHT22;24380;51.132;5.360;2023-04-22T14:02:29;14.70;99.90
38622;DHT22;24380;51.132;5.360;2023-04-22T14:04:57;14.60;99.90
38622;DHT22;24380;51.132;5.360;2023-04-22T14:07:24;14.50;99.90
38622;DHT22;24380;51.132;5.360;2023-04-22T14:09:52;14.40;99.90
38622;DHT22;24380;51.132;5.360;2023-04-22T14:12:19;14.50;99.90
38622;DHT22;24380;51.132;5.360;2023-04-22T14:14:47;14.60;99.90
38622;DHT22;24380;51.132;5.360;2023-04-22T14:17:14;14.70;99.90
38622;DHT22;24380;51.132;5.360;2023-04-22T14:19:42;14.80;99.90
38622;DHT22;24380;51.132;5.360;2023-04-22T14:22:10;14.70;99.90
38622;DHT22;24380;51.132;5.360;2023-04-22T14:24:37;14.80;99.90
38622;DHT22;24380;51.132;5.360;2023-04-22T14:27:05;14.80;99.90
38622;DHT22;24380;51.132;5.360;2023-04-22T14:29:32;14.80;99.90
38622;DHT22;24380;51.132;5.360;2023-04-22T14:32:00;14.80;99.90
38622;DHT22;24380;51.132;5.360;2023-04-22T14:34:28;14.90;99.90
38622;DHT22;24380;51.132;5.360;2023-04-22T14:36:55;14.80;99.90
38622;DHT22;24380;51.132;5.360;2023-04-22T14:39:23;14.80;99.90
38622;DHT22;24380;51.132;5.360;2023-04-22T14:41:51;14.70;99.90
38622;DHT22;24380;51.132;5.360;2023-04-22T14:44:18;14.80;99.90
38622;DHT22;24380;51.132;5.360;2023-04-22T14:46:46;14.80;99.90
38622;DHT22;24380;51.132;5.360;2023-04-22T14:49:33;14.70;99.90
38622;DHT22;24380;51.132;5.360;2023-04-22T14:52:00;14.70;99.90
38622;DHT22;24380;51.132;5.360;2023-04-22T14:54:28;14.80;99.90
38622;DHT22;24380;51.132;5.360;2023-04-22T14:56:56;14.80;99.90
38622;DHT22;24380;51.132;5.360;2023-04-22T14:59:24;14.80;99.90
38622;DHT22;24380;51.132;5.360;2023-04-22T15:01:51;14.90;99.90
38622;DHT22;24380;51.132;5.360;2023-04-22T15:04:19;14.90;99.90
38622;DHT22;24380;51.132;5.360;2023-04-22T15:06:47;14.90;99.90
38622;DHT22;24380;51.132;5.360;2023-04-22T15:09:14;14.90;99.90
38622;DHT22;24380;51.132;5.360;2023-04-22T15:11:42;15.00;99.90
38622;DHT22;24380;51.132;5.360;2023-04-22T15:14:09;15.00;99.90
38622;DHT22;24380;51.132;5.360;2023-04-22T15:19:05;15.00;99.90
38622;DHT22;24380;51.132;5.360;2023-04-22T15:21:32;14.90;99.90
38622;DHT22;24380;51.132;5.360;2023-04-22T15:24:00;15.00;99.90
38622;DHT22;24380;51.132;5.360;2023-04-22T15:26:28;15.00;99.90
38622;DHT22;24380;51.132;5.360;2023-04-22T15:28:56;14.90;99.90
38622;DHT22;24380;51.132;5.360;2023-04-22T15:31:23;15.00;99.90
38622;DHT22;24380;51.132;5.360;2023-04-22T15:33:52;15.00;99.90
38622;DHT22;24380;51.132;5.360;2023-04-22T15:36:20;15.00;99.90
38622;DHT22;24380;51.132;5.360;2023-04-22T15:38:50;14.90;99.90
38622;DHT22;24380;51.132;5.360;2023-04-22T15:41:16;14.90;99.90
38622;DHT22;24380;51.132;5.360;2023-04-22T15:43:44;14.90;99.90
38622;DHT22;24380;51.132;5.360;2023-04-22T15:46:11;14.90;99.90
38622;DHT22;24380;51.132;5.360;2023-04-22T15:48:40;14.90;99.90
38622;DHT22;24380;51.132;5.360;2023-04-22T15:51:09;14.90;99.90
38622;DHT22;24380;51.132;5.360;2023-04-22T15:53:37;14.90;99.90
38622;DHT22;24380;51.132;5.360;2023-04-22T15:56:04;14.90;99.90
38622;DHT22;24380;51.132;5.360;2023-04-22T15:58:32;14.90;99.90
38622;DHT22;24380;51.132;5.360;2023-04-22T16:01:00;15.00;99.90
38622;DHT22;24380;51.132;5.360;2023-04-22T16:03:27;15.00;99.90